createdAt,value
2018-10-16T00:00:14.205Z,100957.73
2018-10-16T00:02:43.124Z,100964.44
2018-10-16T00:05:12.045Z,100959.27
2018-10-16T00:07:41.224Z,100968.19
2018-10-16T00:10:10.407Z,100967.84
2018-10-16T00:12:39.812Z,100968.38
2018-10-16T00:15:09.846Z,100971.55
2018-10-16T00:17:38.329Z,100973.90
2018-10-16T00:20:08.153Z,100974.42
2018-10-16T00:22:37.360Z,100979.84
2018-10-16T00:25:09.913Z,100977.78
2018-10-16T00:27:38.616Z,100989.28
2018-10-16T00:30:08.029Z,100986.29
2018-10-16T00:32:39.816Z,100992.23
2018-10-16T00:35:08.356Z,100995.80
2018-10-16T00:37:37.170Z,100999.91
2018-10-16T00:40:06.194Z,100995.58
2018-10-16T00:42:34.843Z,100999.59
2018-10-16T00:45:03.610Z,101000.13
2018-10-16T00:47:32.798Z,100997.13
2018-10-16T00:50:01.704Z,101000.30
2018-10-16T00:52:30.872Z,100998.22
2018-10-16T00:54:59.343Z,101004.95
2018-10-16T00:57:28.042Z,101000.63
2018-10-16T00:59:56.993Z,101006.45
2018-10-16T01:02:25.576Z,101012.22
2018-10-16T01:04:54.076Z,101004.38
2018-10-16T01:07:22.546Z,101011.46
2018-10-16T01:09:51.233Z,101019.04
2018-10-16T01:12:19.721Z,101019.16
2018-10-16T01:14:48.977Z,101018.28
2018-10-16T01:17:17.522Z,101018.80
2018-10-16T01:19:46.124Z,101019.33
2018-10-16T01:22:14.955Z,101019.84
2018-10-16T01:24:43.498Z,101016.41
2018-10-16T01:27:12.048Z,101016.92
2018-10-16T01:29:40.680Z,101023.98
2018-10-16T01:32:09.162Z,101028.59
2018-10-16T01:34:37.802Z,101029.55
2018-10-16T01:37:06.365Z,101026.95
2018-10-16T01:39:34.961Z,101027.91
2018-10-16T01:42:04.287Z,101026.19
2018-10-16T01:44:32.897Z,101023.11
2018-10-16T01:47:01.706Z,101023.23
2018-10-16T01:49:30.869Z,101028.56
2018-10-16T01:51:59.391Z,101026.44
2018-10-16T01:54:28.467Z,101024.72
2018-10-16T01:56:57.630Z,101023.47
2018-10-16T01:59:26.561Z,101019.55
2018-10-16T02:01:55.078Z,101026.59
2018-10-16T02:04:24.617Z,101024.07
2018-10-16T02:06:53.331Z,101024.59
2018-10-16T02:09:22.901Z,101028.59
2018-10-16T02:11:51.397Z,101020.78
2018-10-16T02:14:19.925Z,101028.35
2018-10-16T02:16:48.962Z,101028.47
2018-10-16T02:19:17.570Z,101029.91
2018-10-16T02:21:46.060Z,101031.27
2018-10-16T02:24:14.516Z,101023.41
2018-10-16T02:26:43.393Z,101026.66
2018-10-16T02:29:12.169Z,101034.22
2018-10-16T02:31:41.381Z,101025.41
2018-10-16T02:34:10.341Z,101020.97
2018-10-16T02:36:39.770Z,101037.22
2018-10-16T02:39:09.791Z,101035.05
2018-10-16T02:41:38.524Z,101036.93
2018-10-16T02:44:07.918Z,101041.33
2018-10-16T02:46:36.504Z,101038.80
2018-10-16T02:49:05.754Z,101041.56
2018-10-16T02:51:34.203Z,101038.95
2018-10-16T02:54:02.712Z,101038.59
2018-10-16T02:56:31.396Z,101036.03
2018-10-16T02:59:00.180Z,101042.67
2018-10-16T03:01:28.661Z,101038.78
2018-10-16T03:03:57.405Z,101037.53
2018-10-16T03:06:25.962Z,101042.89
2018-10-16T03:08:54.417Z,101045.97
2018-10-16T03:11:23.470Z,101043.84
2018-10-16T03:13:52.029Z,101047.00
2018-10-16T03:16:20.583Z,101048.76
2018-10-16T03:18:49.059Z,101051.51
2018-10-16T03:21:17.645Z,101052.02
2018-10-16T03:23:46.249Z,101050.73
2018-10-16T03:26:14.739Z,101055.21
2018-10-16T03:28:43.587Z,101055.72
2018-10-16T03:31:12.153Z,101058.00
2018-10-16T03:33:40.788Z,101063.82
2018-10-16T03:36:09.301Z,101061.25
2018-10-16T03:38:37.748Z,101061.70
2018-10-16T03:41:06.286Z,101058.69
2018-10-16T03:43:37.901Z,101064.48
2018-10-16T03:46:07.607Z,101061.03
2018-10-16T03:48:36.368Z,101064.11
2018-10-16T03:51:05.634Z,101058.02
2018-10-16T03:53:34.286Z,101059.85
2018-10-16T03:56:02.974Z,101067.33
2018-10-16T03:58:31.598Z,101055.12
2018-10-16T04:01:00.045Z,101066.55
2018-10-16T04:03:29.241Z,101063.91
2018-10-16T04:05:58.458Z,101068.79
2018-10-16T04:08:27.084Z,101070.58
2018-10-16T04:10:55.554Z,101064.90
2018-10-16T04:13:24.202Z,101074.98
2018-10-16T04:15:52.652Z,101070.21
2018-10-16T04:18:21.276Z,101073.29
2018-10-16T04:20:50.057Z,101079.95
2018-10-16T04:23:18.491Z,101088.31
2018-10-16T04:25:47.793Z,101084.42
2018-10-16T04:28:16.271Z,101083.98
2018-10-16T04:30:44.833Z,101089.77
2018-10-16T04:33:13.480Z,101088.95
2018-10-16T04:35:41.900Z,101092.10
2018-10-16T04:38:11.007Z,101086.45
2018-10-16T04:40:39.967Z,101093.55
2018-10-16T04:43:08.468Z,101095.38
2018-10-16T04:45:37.208Z,101097.23
2018-10-16T04:48:06.893Z,101091.75
2018-10-16T04:50:35.409Z,101097.16
2018-10-16T04:53:04.720Z,101101.05
2018-10-16T04:55:33.185Z,101097.20
2018-10-16T04:58:02.049Z,101103.76
2018-10-16T05:00:30.727Z,101107.20
2018-10-16T05:03:00.499Z,101106.80
2018-10-16T05:05:29.068Z,101109.97
2018-10-16T05:07:57.686Z,101115.75
2018-10-16T05:10:33.037Z,101110.13
2018-10-16T05:13:02.476Z,101115.88
2018-10-16T05:15:32.081Z,101112.02
2018-10-16T05:18:00.525Z,101109.95
2018-10-16T05:20:29.092Z,101106.53
2018-10-16T05:22:59.557Z,101114.03
2018-10-16T05:25:29.317Z,101114.94
2018-10-16T05:27:58.339Z,101117.27
2018-10-16T05:30:27.395Z,101110.20
2018-10-16T05:32:56.967Z,101118.58
2018-10-16T05:35:25.415Z,101120.02
2018-10-16T05:37:53.925Z,101124.01
2018-10-16T05:40:22.382Z,101120.63
2018-10-16T05:42:51.588Z,101125.02
2018-10-16T05:45:20.111Z,101129.84
2018-10-16T05:47:48.727Z,101129.78
2018-10-16T05:50:17.531Z,101131.09
2018-10-16T05:52:47.116Z,101126.30
2018-10-16T05:55:16.614Z,101126.30
2018-10-16T05:57:45.242Z,101132.89
2018-10-16T06:00:24.942Z,101124.98
2018-10-16T06:02:54.284Z,101127.62
2018-10-16T06:05:22.834Z,101134.20
2018-10-16T06:07:51.430Z,101131.51
2018-10-16T06:10:19.957Z,101135.44
2018-10-16T06:12:48.593Z,101136.78
2018-10-16T06:15:17.102Z,101139.41
2018-10-16T06:17:46.122Z,101148.64
2018-10-16T06:20:14.779Z,101149.11
2018-10-16T06:22:43.654Z,101152.16
2018-10-16T06:25:12.453Z,101155.23
2018-10-16T06:27:42.447Z,101157.86
2018-10-16T06:30:12.269Z,101165.34
2018-10-16T06:32:41.188Z,101161.82
2018-10-16T06:35:10.812Z,101162.29
2018-10-16T06:37:40.212Z,101168.00
2018-10-16T06:40:10.185Z,101166.68
2018-10-16T06:42:39.512Z,101171.55
2018-10-16T06:45:09.285Z,101176.91
2018-10-16T06:47:38.449Z,101177.41
2018-10-16T06:50:08.875Z,101174.80
2018-10-16T06:52:37.393Z,101182.27
2018-10-16T06:55:07.091Z,101180.89
2018-10-16T06:57:36.137Z,101179.57
2018-10-16T07:00:05.588Z,101187.86
2018-10-16T07:02:34.852Z,101183.00
2018-10-16T07:05:03.381Z,101178.95
2018-10-16T07:07:32.823Z,101184.16
2018-10-16T07:10:01.405Z,101192.39
2018-10-16T07:12:29.886Z,101186.13
2018-10-16T07:14:58.626Z,101185.19
2018-10-16T07:17:27.162Z,101189.45
2018-10-16T07:19:55.708Z,101191.53
2018-10-16T07:22:24.561Z,101191.41
2018-10-16T07:24:53.083Z,101191.25
2018-10-16T07:27:21.764Z,101188.90
2018-10-16T07:29:50.618Z,101198.38
2018-10-16T07:32:19.686Z,101199.95
2018-10-16T07:34:48.814Z,101196.28
2018-10-16T07:37:17.447Z,101193.47
2018-10-16T07:39:46.078Z,101206.10
2018-10-16T07:42:14.556Z,101205.53
2018-10-16T07:44:43.152Z,101208.45
2018-10-16T07:47:11.738Z,101207.88
2018-10-16T07:49:40.905Z,101209.47
2018-10-16T07:52:09.777Z,101212.45
2018-10-16T07:54:38.445Z,101213.64
2018-10-16T07:57:07.595Z,101218.38
2018-10-16T07:59:37.724Z,101225.28
2018-10-16T08:02:06.453Z,101223.15
2018-10-16T08:04:35.601Z,101220.47
2018-10-16T08:07:04.133Z,101219.05
2018-10-16T08:09:32.869Z,101211.88
2018-10-16T08:12:01.323Z,101214.78
2018-10-16T08:14:29.912Z,101215.53
2018-10-16T08:16:59.200Z,101215.87
2018-10-16T08:19:27.698Z,101216.13
2018-10-16T08:21:56.265Z,101214.20
2018-10-16T08:24:24.827Z,101219.30
2018-10-16T08:26:53.839Z,101226.58
2018-10-16T08:29:22.404Z,101225.95
2018-10-16T08:31:50.948Z,101226.63
2018-10-16T08:34:19.670Z,101224.23
2018-10-16T08:36:48.888Z,101222.18
2018-10-16T08:39:22.055Z,101220.63
2018-10-16T08:44:04.454Z,101216.00
2018-10-16T08:46:44.442Z,101223.97
2018-10-16T08:49:24.373Z,101212.72
2018-10-16T08:51:54.398Z,101214.09
2018-10-16T08:54:23.838Z,101214.17
2018-10-16T08:57:00.534Z,101214.30
2018-10-16T08:59:29.825Z,101209.09
2018-10-16T09:02:05.191Z,101212.61
2018-10-16T09:04:33.712Z,101214.27
2018-10-16T09:07:02.427Z,101218.59
2018-10-16T09:09:30.998Z,101216.22
2018-10-16T09:12:00.311Z,101220.74
2018-10-16T09:14:28.984Z,101223.13
2018-10-16T09:16:57.583Z,101218.53
2018-10-16T09:19:26.866Z,101210.72
2018-10-16T09:21:55.647Z,101208.55
2018-10-16T09:24:24.374Z,101211.77
2018-10-16T09:26:52.823Z,101212.56
2018-10-16T09:29:22.238Z,101212.16
2018-10-16T09:31:50.897Z,101210.42
2018-10-16T09:34:19.476Z,101209.98
2018-10-16T09:36:48.825Z,101207.54
2018-10-16T09:39:17.361Z,101208.45
2018-10-16T09:41:45.831Z,101208.92
2018-10-16T09:44:14.325Z,101213.23
2018-10-16T09:46:43.801Z,101206.84
2018-10-16T09:49:12.366Z,101203.66
2018-10-16T09:51:40.851Z,101208.83
2018-10-16T09:54:09.308Z,101209.22
2018-10-16T09:56:38.145Z,101201.47
2018-10-16T09:59:07.086Z,101208.77
2018-10-16T10:01:40.794Z,101205.56
2018-10-16T10:04:09.251Z,101206.67
2018-10-16T10:06:37.888Z,101206.52
2018-10-16T10:09:09.423Z,101204.18
2018-10-16T10:11:38.160Z,101206.22
2018-10-16T10:14:07.281Z,101205.58
2018-10-16T10:16:36.527Z,101199.09
2018-10-16T10:19:05.683Z,101202.84
2018-10-16T10:21:34.173Z,101199.41
2018-10-16T10:24:02.905Z,101202.03
2018-10-16T10:26:32.349Z,101198.52
2018-10-16T10:29:00.961Z,101197.26
2018-10-16T10:31:30.025Z,101201.98
2018-10-16T10:33:58.962Z,101201.72
2018-10-16T10:36:27.771Z,101196.22
2018-10-16T10:38:56.396Z,101195.80
2018-10-16T10:41:24.973Z,101191.14
2018-10-16T10:43:54.178Z,101183.89
2018-10-16T10:46:22.771Z,101187.22
2018-10-16T10:48:52.434Z,101187.78
2018-10-16T10:51:21.242Z,101188.28
2018-10-16T10:53:50.177Z,101189.61
2018-10-16T10:56:18.660Z,101188.28
2018-10-16T10:58:47.131Z,101188.55
2018-10-16T11:01:15.853Z,101188.98
2018-10-16T11:03:44.355Z,101183.05
2018-10-16T11:06:13.053Z,101181.88
2018-10-16T11:08:41.743Z,101186.91
2018-10-16T11:11:10.173Z,101178.89
2018-10-16T11:13:38.790Z,101179.11
2018-10-16T11:16:07.347Z,101175.56
2018-10-16T11:18:35.969Z,101171.38
2018-10-16T11:21:04.696Z,101177.53
2018-10-16T11:23:33.291Z,101174.19
2018-10-16T11:26:01.733Z,101172.75
2018-10-16T11:28:30.765Z,101175.20
2018-10-16T11:30:59.200Z,101165.25
2018-10-16T11:33:27.749Z,101164.83
2018-10-16T11:35:56.251Z,101165.92
2018-10-16T11:38:24.993Z,101161.95
2018-10-16T11:40:53.806Z,101158.63
2018-10-16T11:43:22.860Z,101164.41
2018-10-16T11:45:51.530Z,101158.66
2018-10-16T11:48:19.898Z,101161.28
2018-10-16T11:50:48.452Z,101157.38
2018-10-16T11:53:17.139Z,101158.45
2018-10-16T11:55:45.581Z,101162.36
2018-10-16T11:58:14.821Z,101161.08
2018-10-16T12:00:43.461Z,101165.52
2018-10-16T12:03:12.009Z,101159.19
2018-10-16T12:05:40.870Z,101158.48
2018-10-16T12:08:09.558Z,101157.59
2018-10-16T12:10:37.973Z,101158.65
2018-10-16T12:13:06.567Z,101162.11
2018-10-16T12:15:35.078Z,101164.61
2018-10-16T12:18:08.791Z,101166.85
2018-10-16T12:20:44.692Z,101160.48
2018-10-16T12:23:13.209Z,101159.73
2018-10-16T12:25:41.917Z,101153.16
2018-10-16T12:28:10.337Z,101154.60
2018-10-16T12:30:38.932Z,101150.38
2018-10-16T12:33:07.634Z,101146.42
2018-10-16T12:35:36.413Z,101153.81
2018-10-16T12:38:05.129Z,101155.08
2018-10-16T12:40:33.929Z,101151.21
2018-10-16T12:43:03.502Z,101153.20
2018-10-16T12:45:32.930Z,101157.94
2018-10-16T12:48:01.541Z,101156.31
2018-10-16T12:50:30.032Z,101155.25
2018-10-16T12:52:59.262Z,101153.48
2018-10-16T12:55:27.737Z,101153.06
2018-10-16T12:57:56.265Z,101154.78
2018-10-16T13:00:24.934Z,101152.16
2018-10-16T13:02:54.027Z,101146.58
2018-10-16T13:05:22.486Z,101147.97
2018-10-16T13:07:50.980Z,101149.37
2018-10-16T13:10:19.871Z,101148.94
2018-10-16T13:12:48.384Z,101148.39
2018-10-16T13:15:17.674Z,101147.83
2018-10-16T13:17:46.233Z,101150.55
2018-10-16T13:20:15.869Z,101150.66
2018-10-16T13:22:46.284Z,101148.80
2018-10-16T13:25:15.917Z,101159.06
2018-10-16T13:27:44.947Z,101149.70
2018-10-16T13:30:15.731Z,101151.61
2018-10-16T13:32:44.831Z,101150.30
2018-10-16T13:35:15.128Z,101148.36
2018-10-16T13:37:44.162Z,101136.09
2018-10-16T13:40:12.985Z,101143.91
2018-10-16T13:42:41.701Z,101144.02
2018-10-16T13:45:13.567Z,101139.24
2018-10-16T13:47:42.127Z,101144.05
2018-10-16T13:50:12.555Z,101144.80
2018-10-16T13:52:41.177Z,101150.84
2018-10-16T13:55:10.477Z,101144.66
2018-10-16T13:57:39.029Z,101143.50
2018-10-16T14:00:12.906Z,101137.69
2018-10-16T14:02:42.486Z,101138.53
2018-10-16T14:05:11.219Z,101143.48
2018-10-16T14:07:40.327Z,101142.37
2018-10-16T14:10:10.815Z,101144.83
2018-10-16T14:12:40.785Z,101149.03
2018-10-16T14:15:09.877Z,101138.11
2018-10-16T14:17:38.645Z,101143.19
2018-10-16T14:20:08.200Z,101147.27
2018-10-16T14:22:38.264Z,101144.44
2018-10-16T14:25:07.917Z,101141.60
2018-10-16T14:27:37.080Z,101139.77
2018-10-16T14:30:06.939Z,101134.12
2018-10-16T14:32:35.704Z,101132.13
2018-10-16T14:35:04.409Z,101132.42
2018-10-16T14:37:32.856Z,101133.76
2018-10-16T14:40:01.590Z,101138.59
2018-10-16T14:42:30.018Z,101136.02
2018-10-16T14:44:59.136Z,101134.83
2018-10-16T14:47:28.126Z,101129.91
2018-10-16T14:49:56.780Z,101130.48
2018-10-16T14:52:25.361Z,101129.34
2018-10-16T14:54:53.943Z,101125.92
2018-10-16T14:57:22.421Z,101127.97
2018-10-16T14:59:50.913Z,101126.73
2018-10-16T15:02:19.600Z,101132.41
2018-10-16T15:04:48.286Z,101128.20
2018-10-16T15:07:16.812Z,101128.54
2018-10-16T15:09:45.332Z,101132.02
2018-10-16T15:12:13.746Z,101134.56
2018-10-16T15:14:42.341Z,101136.30
2018-10-16T15:17:11.136Z,101134.31
2018-10-16T15:19:39.850Z,101134.13
2018-10-16T15:22:08.651Z,101134.69
2018-10-16T15:24:37.189Z,101130.84
2018-10-16T15:27:06.329Z,101127.00
2018-10-16T15:29:34.939Z,101130.23
2018-10-16T15:32:04.052Z,101128.19
2018-10-16T15:34:32.580Z,101131.97
2018-10-16T15:37:00.984Z,101130.52
2018-10-16T15:39:29.596Z,101128.92
2018-10-16T15:41:58.097Z,101133.01
2018-10-16T15:44:26.841Z,101132.67
2018-10-16T15:46:55.419Z,101127.84
2018-10-16T15:49:24.430Z,101131.87
2018-10-16T15:51:53.321Z,101129.81
2018-10-16T15:54:22.043Z,101127.63
2018-10-16T15:56:51.055Z,101125.95
2018-10-16T15:59:19.586Z,101129.33
2018-10-16T16:01:48.135Z,101128.13
2018-10-16T16:04:16.808Z,101134.07
2018-10-16T16:06:45.359Z,101133.33
2018-10-16T16:09:13.940Z,101131.65
2018-10-16T16:11:43.495Z,101135.37
2018-10-16T16:14:12.742Z,101131.44
2018-10-16T16:16:41.312Z,101137.78
2018-10-16T16:19:09.871Z,101143.70
2018-10-16T16:21:38.500Z,101137.20
2018-10-16T16:24:07.053Z,101136.94
2018-10-16T16:26:35.643Z,101139.22
2018-10-16T16:29:04.704Z,101141.11
2018-10-16T16:31:34.221Z,101143.30
2018-10-16T16:34:02.798Z,101146.88
2018-10-16T16:36:31.398Z,101145.16
2018-10-16T16:38:59.938Z,101147.34
2018-10-16T16:41:29.441Z,101147.39
2018-10-16T16:43:58.312Z,101150.06
2018-10-16T16:46:26.801Z,101154.04
2018-10-16T16:48:55.288Z,101146.56
2018-10-16T16:51:24.127Z,101152.28
2018-10-16T16:53:52.588Z,101155.78
2018-10-16T16:56:21.858Z,101153.15
2018-10-16T16:58:50.892Z,101160.23
2018-10-16T17:01:19.378Z,101161.94
2018-10-16T17:03:47.816Z,101157.42
2018-10-16T17:06:16.645Z,101163.09
2018-10-16T17:08:45.502Z,101168.41
2018-10-16T17:11:14.127Z,101171.02
2018-10-16T17:13:43.697Z,101171.38
2018-10-16T17:16:12.280Z,101170.47
2018-10-16T17:18:40.817Z,101169.39
2018-10-16T17:21:09.281Z,101165.78
2018-10-16T17:23:38.050Z,101170.14
2018-10-16T17:26:07.259Z,101173.95
2018-10-16T17:28:35.742Z,101174.70
2018-10-16T17:31:04.245Z,101178.63
2018-10-16T17:33:33.010Z,101178.02
2018-10-16T17:36:01.759Z,101183.59
2018-10-16T17:38:30.818Z,101182.11
2018-10-16T17:40:59.521Z,101182.42
2018-10-16T17:43:34.566Z,101184.48
2018-10-16T17:46:03.391Z,101183.84
2018-10-16T17:48:32.693Z,101184.18
2018-10-16T17:51:01.296Z,101186.69
2018-10-16T17:53:30.532Z,101186.05
2018-10-16T17:55:59.853Z,101193.81
2018-10-16T17:58:28.588Z,101189.60
2018-10-16T18:00:57.246Z,101191.06
2018-10-16T18:03:25.729Z,101198.41
2018-10-16T18:05:54.193Z,101200.84
2018-10-16T18:08:23.888Z,101196.20
2018-10-16T18:10:52.425Z,101197.36
2018-10-16T18:13:21.036Z,101200.19
2018-10-16T18:15:49.725Z,101201.30
2018-10-16T18:18:18.780Z,101198.76
2018-10-16T18:20:47.462Z,101195.42
2018-10-16T18:23:16.018Z,101202.30
2018-10-16T18:25:44.557Z,101202.97
2018-10-16T18:28:13.331Z,101201.80
2018-10-16T18:30:41.806Z,101199.36
2018-10-16T18:33:10.523Z,101201.79
2018-10-16T18:35:39.163Z,101201.46
2018-10-16T18:38:07.751Z,101206.55
2018-10-16T18:40:36.340Z,101202.68
2018-10-16T18:43:04.945Z,101198.40
2018-10-16T18:45:33.644Z,101202.99
2018-10-16T18:48:02.396Z,101208.47
2018-10-16T18:50:31.272Z,101209.47
2018-10-16T18:52:59.711Z,101203.97
2018-10-16T18:55:28.589Z,101208.92
2018-10-16T18:57:57.175Z,101209.14
2018-10-16T19:00:25.681Z,101210.17
2018-10-16T19:02:54.376Z,101206.78
2018-10-16T19:05:23.156Z,101206.94
2018-10-16T19:07:52.169Z,101207.05
2018-10-16T19:10:20.851Z,101206.36
2018-10-16T19:12:49.434Z,101216.17
2018-10-16T19:15:18.508Z,101219.92
2018-10-16T19:17:47.417Z,101216.53
2018-10-16T19:20:16.923Z,101217.56
2018-10-16T19:22:46.278Z,101217.67
2018-10-16T19:25:18.621Z,101215.56
2018-10-16T19:27:48.063Z,101222.75
2018-10-16T19:30:16.588Z,101214.53
2018-10-16T19:32:45.301Z,101215.04
2018-10-16T19:35:15.176Z,101220.45
2018-10-16T19:37:43.853Z,101220.59
2018-10-16T19:40:12.860Z,101220.25
2018-10-16T19:42:41.457Z,101223.90
2018-10-16T19:45:10.924Z,101224.05
2018-10-16T19:47:40.091Z,101229.02
2018-10-16T19:50:09.376Z,101229.56
2018-10-16T19:52:38.115Z,101231.97
2018-10-16T19:55:06.917Z,101235.61
2018-10-16T19:57:35.558Z,101247.61
2018-10-16T20:00:04.510Z,101240.67
2018-10-16T20:02:33.007Z,101239.98
2018-10-16T20:05:01.864Z,101240.09
2018-10-16T20:07:30.758Z,101240.69
2018-10-16T20:09:59.274Z,101246.53
2018-10-16T20:12:27.904Z,101239.11
2018-10-16T20:14:56.476Z,101240.55
2018-10-16T20:17:25.487Z,101245.55
2018-10-16T20:19:54.040Z,101245.55
2018-10-16T20:22:22.810Z,101247.46
2018-10-16T20:24:51.565Z,101247.46
2018-10-16T20:27:20.235Z,101246.19
2018-10-16T20:29:48.892Z,101246.27
2018-10-16T20:32:17.770Z,101247.70
2018-10-16T20:34:46.563Z,101239.48
2018-10-16T20:37:15.830Z,101234.32
2018-10-16T20:39:45.211Z,101236.09
2018-10-16T20:42:13.772Z,101230.08
2018-10-16T20:44:42.302Z,101227.48
2018-10-16T20:47:10.990Z,101236.91
2018-10-16T20:49:40.689Z,101231.70
2018-10-16T20:52:09.275Z,101228.26
2018-10-16T20:54:44.696Z,101227.07
2018-10-16T20:57:13.795Z,101226.33
2018-10-16T20:59:43.789Z,101225.94
2018-10-16T21:02:12.585Z,101231.82
2018-10-16T21:04:41.906Z,101226.20
2018-10-16T21:07:11.485Z,101231.61
2018-10-16T21:09:41.065Z,101229.89
2018-10-16T21:12:10.285Z,101229.09
2018-10-16T21:14:38.868Z,101228.70
2018-10-16T21:17:07.467Z,101220.80
2018-10-16T21:19:35.952Z,101230.55
2018-10-16T21:22:04.762Z,101220.48
2018-10-16T21:24:40.190Z,101225.44
2018-10-16T21:27:10.305Z,101220.27
2018-10-16T21:29:38.936Z,101218.55
2018-10-16T21:32:09.141Z,101213.74
2018-10-16T21:34:38.017Z,101209.45
2018-10-16T21:37:07.124Z,101206.90
2018-10-16T21:39:36.207Z,101216.27
2018-10-16T21:42:05.092Z,101219.86
2018-10-16T21:44:33.788Z,101223.44
2018-10-16T21:47:02.300Z,101227.55
2018-10-16T21:49:30.973Z,101228.97
2018-10-16T21:51:59.495Z,101219.30
2018-10-16T21:54:28.109Z,101219.60
2018-10-16T21:56:56.681Z,101220.66
2018-10-16T21:59:26.195Z,101221.19
2018-10-16T22:02:00.632Z,101214.56
2018-10-16T22:04:29.093Z,101217.73
2018-10-16T22:06:57.762Z,101225.34
2018-10-16T22:09:26.325Z,101212.53
2018-10-16T22:11:55.013Z,101216.11
2018-10-16T22:14:23.506Z,101211.74
2018-10-16T22:16:52.137Z,101213.11
2018-10-16T22:19:20.617Z,101211.88
2018-10-16T22:21:49.184Z,101207.55
2018-10-16T22:24:18.413Z,101204.05
2018-10-16T22:26:47.834Z,101203.62
2018-10-16T22:29:16.984Z,101212.57
2018-10-16T22:31:45.552Z,101210.45
2018-10-16T22:34:14.057Z,101199.50
2018-10-16T22:36:42.629Z,101202.73
2018-10-16T22:39:11.795Z,101200.60
2018-10-16T22:41:40.476Z,101194.11
2018-10-16T22:44:09.584Z,101196.41
2018-10-16T22:46:38.305Z,101193.41
2018-10-16T22:49:07.359Z,101196.98
2018-10-16T22:51:35.987Z,101197.50
2018-10-16T22:54:04.565Z,101196.70
2018-10-16T22:56:33.032Z,101193.66
2018-10-16T22:59:01.873Z,101194.05
2018-10-16T23:01:30.503Z,101193.66
2018-10-16T23:03:59.848Z,101199.40
2018-10-16T23:06:28.313Z,101196.40
2018-10-16T23:08:56.780Z,101190.78
2018-10-16T23:11:25.405Z,101197.84
2018-10-16T23:13:53.997Z,101191.75
2018-10-16T23:16:22.761Z,101193.47
2018-10-16T23:18:51.269Z,101191.35
2018-10-16T23:21:19.737Z,101184.38
2018-10-16T23:23:48.217Z,101190.16
2018-10-16T23:26:16.984Z,101181.73
2018-10-16T23:28:45.455Z,101173.79
2018-10-16T23:31:14.079Z,101179.96
2018-10-16T23:33:42.641Z,101178.23
2018-10-16T23:36:11.199Z,101179.56
2018-10-16T23:38:40.351Z,101177.84
2018-10-16T23:41:09.304Z,101179.20
2018-10-16T23:43:37.922Z,101175.28
2018-10-16T23:46:06.929Z,101174.96
2018-10-16T23:48:36.009Z,101178.58
2018-10-16T23:51:04.528Z,101174.66
2018-10-16T23:53:33.161Z,101169.97
2018-10-16T23:56:01.680Z,101173.47
2018-10-16T23:58:30.421Z,101170.14
